createdAt,value
2019-03-13T00:00:47.421Z,16.74
2019-03-13T00:03:16.402Z,16.72
2019-03-13T00:05:43.708Z,16.73
2019-03-13T00:08:11.127Z,16.73
2019-03-13T00:10:38.617Z,16.73
2019-03-13T00:13:05.617Z,16.75
2019-03-13T00:15:32.698Z,16.73
2019-03-13T00:18:02.998Z,16.69
2019-03-13T00:20:30.415Z,16.68
2019-03-13T00:22:57.443Z,16.65
2019-03-13T00:25:24.607Z,16.68
2019-03-13T00:27:52.063Z,16.69
2019-03-13T00:30:22.438Z,16.73
2019-03-13T00:32:49.485Z,16.73
2019-03-13T00:35:18.724Z,16.76
2019-03-13T00:37:46.044Z,16.78
2019-03-13T00:40:13.330Z,16.77
2019-03-13T00:42:40.364Z,16.79
2019-03-13T00:45:07.285Z,16.78
2019-03-13T00:47:34.250Z,16.81
2019-03-13T00:50:01.258Z,16.82
2019-03-13T00:52:30.264Z,16.86
2019-03-13T00:54:57.262Z,16.87
2019-03-13T00:57:25.675Z,16.89
2019-03-13T00:59:54.270Z,16.89
2019-03-13T01:02:21.225Z,16.87
2019-03-13T01:04:48.266Z,16.90
2019-03-13T01:07:15.565Z,16.93
2019-03-13T01:09:42.551Z,16.97
2019-03-13T01:12:09.592Z,16.99
2019-03-13T01:14:36.945Z,16.98
2019-03-13T01:17:06.768Z,16.99
2019-03-13T01:19:35.873Z,16.99
2019-03-13T01:22:03.224Z,17.03
2019-03-13T01:24:31.295Z,17.05
2019-03-13T01:27:00.673Z,17.00
2019-03-13T01:29:27.197Z,16.98
2019-03-13T01:31:55.751Z,16.99
2019-03-13T01:34:22.900Z,16.99
2019-03-13T01:36:49.926Z,16.98
2019-03-13T01:39:16.834Z,17.00
2019-03-13T01:41:43.789Z,17.02
2019-03-13T01:44:10.755Z,17.04
2019-03-13T01:46:37.638Z,17.08
2019-03-13T01:49:04.905Z,17.10
2019-03-13T01:51:32.144Z,17.11
2019-03-13T01:53:59.100Z,17.14
2019-03-13T01:56:26.077Z,17.14
2019-03-13T01:58:53.309Z,17.16
2019-03-13T02:01:21.011Z,17.18
2019-03-13T02:03:48.386Z,17.20
2019-03-13T02:06:15.815Z,17.20
2019-03-13T02:08:45.288Z,17.23
2019-03-13T02:11:12.278Z,17.24
2019-03-13T02:13:39.575Z,17.25
2019-03-13T02:16:09.602Z,17.23
2019-03-13T02:18:36.854Z,17.24
2019-03-13T02:21:03.876Z,17.20
2019-03-13T02:23:31.898Z,17.16
2019-03-13T02:25:59.174Z,17.13
2019-03-13T02:28:27.539Z,17.12
2019-03-13T02:30:54.565Z,17.12
2019-03-13T02:33:22.725Z,17.07
2019-03-13T02:35:49.712Z,17.05
2019-03-13T02:38:16.704Z,17.05
2019-03-13T02:40:43.625Z,17.05
2019-03-13T02:43:10.954Z,17.03
2019-03-13T02:45:37.880Z,16.97
2019-03-13T02:48:05.144Z,16.97
2019-03-13T02:50:32.162Z,16.93
2019-03-13T02:52:59.134Z,16.90
2019-03-13T02:55:29.347Z,16.88
2019-03-13T02:57:56.420Z,16.84
2019-03-13T03:00:23.475Z,16.75
2019-03-13T03:02:50.548Z,16.71
2019-03-13T03:05:17.596Z,16.74
2019-03-13T03:07:44.926Z,16.77
2019-03-13T03:10:12.075Z,16.74
2019-03-13T03:12:39.318Z,16.72
2019-03-13T03:15:06.471Z,16.69
2019-03-13T03:17:33.480Z,16.68
2019-03-13T03:20:00.606Z,16.66
2019-03-13T03:22:28.110Z,16.66
2019-03-13T03:24:55.154Z,16.71
2019-03-13T03:27:22.461Z,16.75
2019-03-13T03:29:49.474Z,16.77
2019-03-13T03:32:19.096Z,16.80
2019-03-13T03:34:46.136Z,16.84
2019-03-13T03:37:13.127Z,16.86
2019-03-13T03:39:40.219Z,16.87
2019-03-13T03:42:07.358Z,16.86
2019-03-13T03:44:34.389Z,16.89
2019-03-13T03:47:01.325Z,16.86
2019-03-13T03:49:28.365Z,16.88
2019-03-13T03:51:55.353Z,16.88
2019-03-13T03:54:22.489Z,16.88
2019-03-13T03:56:49.903Z,16.90
2019-03-13T03:59:17.205Z,16.90
2019-03-13T04:01:45.758Z,16.90
2019-03-13T04:04:16.372Z,16.89
2019-03-13T04:06:45.425Z,16.90
2019-03-13T04:09:14.016Z,16.91
2019-03-13T04:11:41.149Z,16.92
2019-03-13T04:14:10.919Z,16.91
2019-03-13T04:16:40.968Z,16.91
2019-03-13T04:19:08.208Z,16.87
2019-03-13T04:21:35.240Z,16.86
2019-03-13T04:24:02.159Z,16.87
2019-03-13T04:26:30.316Z,16.85
2019-03-13T04:28:58.919Z,16.83
2019-03-13T04:31:25.966Z,16.80
2019-03-13T04:33:54.924Z,16.78
2019-03-13T04:36:21.541Z,16.70
2019-03-13T04:38:51.729Z,16.69
2019-03-13T04:41:18.672Z,16.66
2019-03-13T04:43:45.659Z,16.64
2019-03-13T04:46:13.028Z,16.61
2019-03-13T04:48:42.316Z,16.61
2019-03-13T04:51:09.281Z,16.60
2019-03-13T04:53:36.514Z,16.58
2019-03-13T04:56:03.801Z,16.55
2019-03-13T04:58:31.141Z,16.49
2019-03-13T05:00:58.174Z,16.44
2019-03-13T05:03:26.314Z,16.40
2019-03-13T05:05:53.250Z,16.35
2019-03-13T05:08:20.313Z,16.36
2019-03-13T05:10:47.361Z,16.34
2019-03-13T05:13:14.677Z,16.32
2019-03-13T05:15:43.323Z,16.30
2019-03-13T05:18:11.359Z,16.29
2019-03-13T05:20:38.327Z,16.23
2019-03-13T05:23:05.306Z,16.19
2019-03-13T05:25:34.187Z,16.18
2019-03-13T05:28:02.222Z,16.15
2019-03-13T05:30:29.187Z,16.11
2019-03-13T05:32:56.477Z,16.07
2019-03-13T05:35:23.550Z,16.05
2019-03-13T05:37:50.499Z,15.98
2019-03-13T05:40:19.482Z,15.94
2019-03-13T05:42:46.670Z,15.88
2019-03-13T05:45:13.949Z,15.83
2019-03-13T05:47:41.320Z,15.84
2019-03-13T05:50:08.344Z,15.84
2019-03-13T05:52:35.654Z,15.82
2019-03-13T05:55:02.740Z,15.76
2019-03-13T05:57:29.715Z,15.71
2019-03-13T05:59:56.734Z,15.70
2019-03-13T06:02:23.757Z,15.70
2019-03-13T06:04:50.810Z,15.74
2019-03-13T06:07:17.775Z,15.76
2019-03-13T06:09:44.836Z,15.81
2019-03-13T06:12:11.764Z,15.83
2019-03-13T06:14:38.760Z,15.80
2019-03-13T06:17:05.768Z,15.86
2019-03-13T06:19:32.801Z,16.05
2019-03-13T06:21:59.727Z,16.25
2019-03-13T06:24:26.748Z,16.41
2019-03-13T06:26:54.828Z,16.47
2019-03-13T06:29:22.230Z,16.54
2019-03-13T06:31:49.604Z,16.70
2019-03-13T06:34:16.638Z,16.79
2019-03-13T06:36:43.624Z,16.89
2019-03-13T06:39:10.973Z,16.98
2019-03-13T06:41:38.403Z,17.12
2019-03-13T06:44:05.451Z,17.27
2019-03-13T06:46:32.566Z,17.38
2019-03-13T06:48:59.946Z,17.39
2019-03-13T06:51:26.866Z,17.43
2019-03-13T06:53:55.971Z,17.42
2019-03-13T06:56:24.833Z,17.54
2019-03-13T06:58:51.822Z,17.64
2019-03-13T07:01:20.772Z,17.75
2019-03-13T07:03:49.032Z,17.89
2019-03-13T07:06:22.331Z,18.00
2019-03-13T07:08:50.859Z,18.12
2019-03-13T07:11:17.871Z,18.15
2019-03-13T07:13:46.273Z,18.21
2019-03-13T07:16:15.219Z,18.26
2019-03-13T07:18:42.171Z,18.32
2019-03-13T07:21:09.141Z,18.43
2019-03-13T07:23:36.445Z,18.58
2019-03-13T07:26:04.606Z,18.72
2019-03-13T07:28:31.886Z,18.83
2019-03-13T07:30:59.110Z,18.90
2019-03-13T07:33:27.174Z,18.98
2019-03-13T07:35:54.443Z,19.04
2019-03-13T07:38:21.684Z,19.07
2019-03-13T07:40:48.863Z,19.15
2019-03-13T07:43:16.100Z,19.31
2019-03-13T07:45:43.562Z,19.47
2019-03-13T07:48:10.610Z,19.56
2019-03-13T07:50:37.846Z,19.63
2019-03-13T07:53:05.831Z,19.65
2019-03-13T07:55:33.177Z,19.78
2019-03-13T07:58:00.141Z,19.91
2019-03-13T08:00:27.095Z,20.08
2019-03-13T08:02:54.031Z,20.25
2019-03-13T08:05:21.042Z,20.34
2019-03-13T08:07:47.997Z,20.30
2019-03-13T08:10:15.249Z,20.14
2019-03-13T08:12:42.144Z,19.80
2019-03-13T08:15:09.104Z,19.55
2019-03-13T08:17:36.401Z,19.35
2019-03-13T08:20:04.904Z,19.19
2019-03-13T08:22:31.875Z,19.13
2019-03-13T08:24:58.828Z,19.01
2019-03-13T08:27:26.138Z,18.90
2019-03-13T08:29:53.129Z,18.76
2019-03-13T08:32:20.068Z,18.77
2019-03-13T08:34:47.058Z,18.78
2019-03-13T08:37:13.937Z,18.67
2019-03-13T08:39:41.019Z,18.65
2019-03-13T08:42:07.961Z,18.66
2019-03-13T08:44:36.541Z,18.60
2019-03-13T08:47:03.750Z,18.56
2019-03-13T08:49:30.646Z,18.56
2019-03-13T08:51:57.619Z,18.58
2019-03-13T08:54:24.901Z,18.65
2019-03-13T08:56:51.849Z,18.70
2019-03-13T08:59:18.833Z,18.68
2019-03-13T09:01:45.878Z,18.69
2019-03-13T09:04:12.969Z,18.61
2019-03-13T09:06:43.194Z,18.58
2019-03-13T09:09:10.482Z,18.58
2019-03-13T09:11:37.437Z,18.48
2019-03-13T09:14:04.957Z,18.43
2019-03-13T09:16:31.845Z,18.39
2019-03-13T09:18:59.167Z,18.46
2019-03-13T09:21:26.140Z,18.49
2019-03-13T09:23:53.014Z,18.53
2019-03-13T09:26:19.949Z,18.57
2019-03-13T09:28:47.257Z,18.54
2019-03-13T09:31:14.523Z,18.51
2019-03-13T09:33:41.509Z,18.44
2019-03-13T09:36:08.909Z,18.41
2019-03-13T09:38:38.379Z,18.39
2019-03-13T09:41:04.952Z,18.41
2019-03-13T09:43:31.919Z,18.37
2019-03-13T09:45:58.886Z,18.44
2019-03-13T09:48:26.201Z,18.44
2019-03-13T09:50:53.175Z,18.42
2019-03-13T09:53:21.418Z,18.39
2019-03-13T09:55:48.309Z,18.35
2019-03-13T09:58:15.631Z,18.39
2019-03-13T10:00:44.407Z,18.37
2019-03-13T10:03:11.194Z,18.39
2019-03-13T10:05:38.395Z,18.35
2019-03-13T10:08:05.647Z,18.30
2019-03-13T10:10:32.604Z,18.29
2019-03-13T10:12:59.587Z,18.28
2019-03-13T10:15:26.532Z,18.25
2019-03-13T10:17:53.474Z,18.23
2019-03-13T10:20:20.381Z,18.31
2019-03-13T10:22:48.574Z,18.31
2019-03-13T10:25:15.525Z,18.31
2019-03-13T10:27:42.890Z,18.32
2019-03-13T10:30:09.840Z,18.30
2019-03-13T10:32:36.802Z,18.28
2019-03-13T10:35:03.686Z,18.32
2019-03-13T10:37:30.950Z,18.42
2019-03-13T10:39:57.915Z,18.38
2019-03-13T10:42:25.144Z,18.36
2019-03-13T10:44:52.383Z,18.37
2019-03-13T10:47:19.256Z,18.39
2019-03-13T10:49:46.226Z,18.38
2019-03-13T10:52:13.554Z,18.36
2019-03-13T10:54:40.902Z,18.40
2019-03-13T10:57:07.778Z,18.46
2019-03-13T10:59:39.294Z,18.51
2019-03-13T11:02:09.198Z,18.60
2019-03-13T11:04:38.781Z,18.62
2019-03-13T11:07:06.194Z,18.67
2019-03-13T11:09:37.812Z,18.66
2019-03-13T11:12:05.777Z,18.63
2019-03-13T11:14:33.438Z,18.60
2019-03-13T11:17:00.395Z,18.54
2019-03-13T11:19:30.988Z,18.53
2019-03-13T11:21:58.706Z,18.58
2019-03-13T11:24:26.058Z,18.53
2019-03-13T11:26:52.937Z,18.45
2019-03-13T11:29:19.922Z,18.41
2019-03-13T11:31:46.881Z,18.42
2019-03-13T11:34:13.841Z,18.37
2019-03-13T11:36:41.093Z,18.35
2019-03-13T11:39:07.999Z,18.35
2019-03-13T11:41:36.428Z,18.39
2019-03-13T11:44:03.816Z,18.43
2019-03-13T11:46:32.410Z,18.42
2019-03-13T11:48:59.546Z,18.36
2019-03-13T11:51:26.923Z,18.38
2019-03-13T11:53:54.374Z,18.43
2019-03-13T11:56:21.691Z,18.44
2019-03-13T11:58:48.706Z,18.42
2019-03-13T12:01:17.456Z,18.43
2019-03-13T12:03:44.414Z,18.50
2019-03-13T12:06:11.990Z,18.53
2019-03-13T12:08:39.063Z,18.61
2019-03-13T12:11:05.995Z,18.64
2019-03-13T12:13:33.062Z,18.67
2019-03-13T12:16:00.207Z,18.68
2019-03-13T12:18:27.518Z,18.67
2019-03-13T12:20:54.494Z,18.68
2019-03-13T12:23:25.282Z,18.64
2019-03-13T12:25:52.267Z,18.57
2019-03-13T12:28:19.321Z,18.48
2019-03-13T12:30:47.759Z,18.40
2019-03-13T12:33:17.150Z,18.39
2019-03-13T12:35:46.448Z,18.35
2019-03-13T12:38:16.289Z,18.30
2019-03-13T12:40:44.568Z,18.33
2019-03-13T12:43:16.642Z,18.26
2019-03-13T12:45:43.591Z,18.19
2019-03-13T12:48:16.592Z,18.17
2019-03-13T12:50:39.564Z,18.15
2019-03-13T12:53:12.848Z,18.17
2019-03-13T12:55:40.112Z,18.15
2019-03-13T12:58:09.111Z,18.18
2019-03-13T13:00:36.038Z,18.20
2019-03-13T13:03:03.357Z,18.17
2019-03-13T13:05:30.243Z,18.23
2019-03-13T13:07:57.189Z,18.32
2019-03-13T13:10:24.106Z,18.40
2019-03-13T13:12:50.992Z,18.41
2019-03-13T13:15:18.258Z,18.38
2019-03-13T13:17:45.291Z,18.48
2019-03-13T13:20:12.554Z,18.63
2019-03-13T13:22:39.902Z,18.81
2019-03-13T13:25:06.865Z,18.82
2019-03-13T13:27:34.099Z,18.79
2019-03-13T13:30:01.400Z,18.86
2019-03-13T13:32:30.464Z,18.92
2019-03-13T13:34:57.725Z,18.95
2019-03-13T13:37:24.666Z,18.93
2019-03-13T13:39:51.823Z,18.91
2019-03-13T13:42:18.797Z,18.89
2019-03-13T13:44:46.110Z,18.87
2019-03-13T13:47:13.304Z,18.85
2019-03-13T13:49:40.449Z,18.84
2019-03-13T13:52:07.674Z,18.84
2019-03-13T13:54:34.998Z,18.86
2019-03-13T13:57:01.969Z,18.87
2019-03-13T13:59:28.948Z,18.85
2019-03-13T14:01:56.255Z,18.83
2019-03-13T14:04:23.505Z,18.81
2019-03-13T14:06:50.650Z,18.79
2019-03-13T14:09:17.548Z,18.79
2019-03-13T14:11:44.504Z,18.74
2019-03-13T14:14:11.702Z,18.70
2019-03-13T14:16:38.941Z,18.74
2019-03-13T14:19:06.200Z,18.81
2019-03-13T14:21:33.067Z,18.83
2019-03-13T14:24:00.029Z,18.81
2019-03-13T14:26:28.373Z,18.84
2019-03-13T14:28:55.340Z,18.85
2019-03-13T14:31:22.289Z,18.85
2019-03-13T14:33:49.166Z,18.87
2019-03-13T14:36:16.247Z,18.88
2019-03-13T14:38:43.526Z,18.86
2019-03-13T14:41:10.766Z,18.82
2019-03-13T14:43:38.040Z,18.81
2019-03-13T14:46:05.371Z,18.82
2019-03-13T14:48:32.619Z,18.81
2019-03-13T14:50:59.531Z,18.84
2019-03-13T14:53:26.595Z,18.81
2019-03-13T14:55:55.808Z,18.80
2019-03-13T14:58:22.176Z,18.79
2019-03-13T15:00:49.417Z,18.74
2019-03-13T15:03:17.789Z,18.67
2019-03-13T15:05:44.766Z,18.62
2019-03-13T15:08:12.219Z,18.62
2019-03-13T15:10:39.146Z,18.60
2019-03-13T15:13:06.104Z,18.60
2019-03-13T15:15:33.069Z,18.62
2019-03-13T15:18:00.504Z,18.59
2019-03-13T15:20:27.518Z,18.79
2019-03-13T15:22:54.525Z,19.00
2019-03-13T15:25:22.749Z,19.15
2019-03-13T15:27:49.996Z,19.24
2019-03-13T15:30:16.973Z,19.11
2019-03-13T15:32:43.945Z,19.02
2019-03-13T15:35:11.194Z,18.97
2019-03-13T15:37:38.079Z,18.88
2019-03-13T15:40:05.348Z,18.83
2019-03-13T15:42:32.292Z,18.79
2019-03-13T15:44:59.204Z,18.77
2019-03-13T15:47:26.620Z,18.74
2019-03-13T15:49:53.569Z,18.72
2019-03-13T15:52:20.438Z,18.68
2019-03-13T15:54:47.742Z,18.65
2019-03-13T15:57:14.699Z,18.76
2019-03-13T15:59:41.924Z,18.85
2019-03-13T16:02:08.814Z,18.89
2019-03-13T16:04:36.186Z,18.81
2019-03-13T16:07:03.378Z,18.74
2019-03-13T16:09:31.371Z,18.66
2019-03-13T16:11:58.392Z,18.61
2019-03-13T16:14:25.661Z,18.56
2019-03-13T16:16:52.843Z,18.52
2019-03-13T16:19:19.816Z,18.47
2019-03-13T16:21:47.090Z,18.44
2019-03-13T16:24:14.262Z,18.42
2019-03-13T16:26:41.526Z,18.40
2019-03-13T16:29:08.507Z,18.35
2019-03-13T16:31:35.436Z,18.35
2019-03-13T16:34:02.653Z,18.36
2019-03-13T16:36:29.550Z,18.35
2019-03-13T16:38:56.417Z,18.34
2019-03-13T16:41:23.299Z,18.29
2019-03-13T16:43:50.177Z,18.26
2019-03-13T16:46:19.247Z,18.26
2019-03-13T16:48:46.109Z,18.22
2019-03-13T16:51:13.008Z,18.17
2019-03-13T16:53:39.898Z,18.16
2019-03-13T16:56:06.902Z,18.15
2019-03-13T16:58:33.853Z,18.09
2019-03-13T17:01:01.322Z,18.06
2019-03-13T17:03:30.089Z,18.03
2019-03-13T17:05:56.979Z,18.03
2019-03-13T17:08:24.302Z,17.97
2019-03-13T17:10:51.298Z,17.94
2019-03-13T17:13:18.324Z,17.97
2019-03-13T17:15:45.597Z,18.00
2019-03-13T17:18:12.571Z,17.97
2019-03-13T17:20:39.831Z,17.97
2019-03-13T17:23:06.716Z,17.98
2019-03-13T17:25:33.804Z,17.96
2019-03-13T17:28:00.866Z,17.92
2019-03-13T17:30:28.320Z,17.91
2019-03-13T17:32:55.606Z,17.96
2019-03-13T17:35:22.753Z,17.96
2019-03-13T17:37:50.025Z,17.93
2019-03-13T17:40:16.917Z,17.89
2019-03-13T17:42:44.205Z,17.87
2019-03-13T17:45:11.455Z,17.85
2019-03-13T17:47:38.730Z,17.80
2019-03-13T17:50:05.666Z,17.82
2019-03-13T17:52:32.667Z,17.82
2019-03-13T17:55:00.371Z,17.82
2019-03-13T17:57:27.372Z,17.83
2019-03-13T17:59:54.378Z,17.85
2019-03-13T18:02:21.610Z,17.86
2019-03-13T18:04:49.065Z,17.86
2019-03-13T18:07:16.028Z,17.85
2019-03-13T18:09:43.359Z,17.82
2019-03-13T18:12:10.624Z,17.78
2019-03-13T18:14:37.489Z,17.78
2019-03-13T18:17:04.431Z,17.77
2019-03-13T18:19:31.769Z,17.79
2019-03-13T18:21:58.746Z,17.79
2019-03-13T18:24:25.702Z,17.77
2019-03-13T18:26:52.631Z,17.73
2019-03-13T18:29:19.881Z,17.70
2019-03-13T18:31:47.421Z,17.66
2019-03-13T18:34:14.386Z,17.64
2019-03-13T18:36:42.903Z,17.62
2019-03-13T18:39:10.094Z,17.58
2019-03-13T18:41:37.151Z,17.56
2019-03-13T18:44:04.421Z,17.54
2019-03-13T18:46:31.744Z,17.56
2019-03-13T18:48:58.682Z,17.52
2019-03-13T18:51:26.668Z,17.55
2019-03-13T18:53:53.917Z,17.55
2019-03-13T18:56:20.895Z,17.57
2019-03-13T18:58:47.844Z,17.64
2019-03-13T19:01:14.814Z,17.71
2019-03-13T19:03:42.127Z,17.75
2019-03-13T19:06:09.347Z,17.86
2019-03-13T19:08:36.705Z,17.88
2019-03-13T19:11:03.789Z,17.94
2019-03-13T19:13:30.735Z,17.90
2019-03-13T19:15:57.965Z,17.88
2019-03-13T19:18:25.208Z,17.86
2019-03-13T19:20:53.887Z,17.82
2019-03-13T19:23:20.798Z,17.76
2019-03-13T19:25:47.686Z,17.71
2019-03-13T19:28:14.682Z,17.64
2019-03-13T19:30:41.997Z,17.62
2019-03-13T19:33:09.468Z,17.58
2019-03-13T19:35:36.361Z,17.53
2019-03-13T19:38:05.334Z,17.50
2019-03-13T19:40:32.428Z,17.50
2019-03-13T19:42:59.410Z,17.48
2019-03-13T19:45:26.755Z,17.44
2019-03-13T19:47:53.710Z,17.43
2019-03-13T19:50:20.965Z,17.46
2019-03-13T19:52:47.886Z,17.42
2019-03-13T19:55:14.846Z,17.39
2019-03-13T19:57:43.029Z,17.34
2019-03-13T20:00:10.276Z,17.37
2019-03-13T20:02:38.657Z,17.40
2019-03-13T20:05:05.544Z,17.36
2019-03-13T20:07:33.076Z,17.34
2019-03-13T20:09:59.963Z,17.35
2019-03-13T20:12:27.129Z,17.36
2019-03-13T20:14:54.457Z,17.36
2019-03-13T20:17:21.771Z,17.36
2019-03-13T20:19:52.195Z,17.36
2019-03-13T20:22:18.631Z,17.39
2019-03-13T20:24:45.602Z,17.37
2019-03-13T20:27:12.549Z,17.35
2019-03-13T20:29:40.062Z,17.35
2019-03-13T20:32:07.026Z,17.37
2019-03-13T20:34:34.039Z,17.34
2019-03-13T20:37:01.213Z,17.28
2019-03-13T20:39:28.162Z,17.30
2019-03-13T20:41:55.657Z,17.27
2019-03-13T20:44:22.619Z,17.22
2019-03-13T20:46:49.625Z,17.18
2019-03-13T20:49:17.063Z,17.15
2019-03-13T20:51:44.318Z,17.15
2019-03-13T20:54:11.328Z,17.17
2019-03-13T20:56:38.232Z,17.17
2019-03-13T20:59:05.574Z,17.14
2019-03-13T21:01:35.310Z,17.13
2019-03-13T21:04:03.078Z,17.16
2019-03-13T21:06:30.582Z,17.19
2019-03-13T21:08:57.615Z,17.19
2019-03-13T21:11:24.649Z,17.22
2019-03-13T21:13:51.935Z,17.24
2019-03-13T21:16:19.192Z,17.25
2019-03-13T21:18:46.205Z,17.26
2019-03-13T21:21:13.259Z,17.26
2019-03-13T21:23:40.557Z,17.22
2019-03-13T21:26:07.914Z,17.27
2019-03-13T21:28:34.983Z,17.29
2019-03-13T21:31:03.979Z,17.30
2019-03-13T21:33:30.802Z,17.26
2019-03-13T21:35:59.777Z,17.21
2019-03-13T21:38:26.885Z,17.12
2019-03-13T21:40:53.842Z,17.12
2019-03-13T21:43:22.751Z,17.13
2019-03-13T21:45:49.400Z,17.13
2019-03-13T21:48:16.526Z,17.13
2019-03-13T21:50:44.539Z,17.07
2019-03-13T21:53:11.529Z,17.09
2019-03-13T21:55:38.559Z,17.11
2019-03-13T21:58:06.311Z,17.14
2019-03-13T22:00:36.235Z,17.15
2019-03-13T22:03:03.194Z,17.16
2019-03-13T22:05:30.499Z,17.16
2019-03-13T22:07:57.754Z,17.15
2019-03-13T22:10:24.649Z,17.12
2019-03-13T22:12:51.567Z,17.10
2019-03-13T22:15:18.940Z,17.10
2019-03-13T22:17:46.165Z,17.10
2019-03-13T22:20:13.410Z,17.06
2019-03-13T22:22:40.460Z,17.01
2019-03-13T22:25:07.721Z,17.02
2019-03-13T22:27:34.602Z,17.03
2019-03-13T22:30:01.803Z,17.01
2019-03-13T22:32:30.687Z,17.02
2019-03-13T22:34:57.582Z,17.02
2019-03-13T22:37:24.533Z,17.01
2019-03-13T22:39:52.152Z,17.03
2019-03-13T22:42:19.249Z,17.03
2019-03-13T22:44:46.187Z,17.02
2019-03-13T22:47:13.159Z,17.00
2019-03-13T22:49:40.049Z,17.00
2019-03-13T22:52:08.234Z,17.00
2019-03-13T22:54:35.191Z,17.03
2019-03-13T22:57:02.144Z,17.03
2019-03-13T22:59:29.024Z,17.01
2019-03-13T23:01:55.933Z,17.01
2019-03-13T23:04:22.970Z,17.05
2019-03-13T23:06:50.174Z,17.04
2019-03-13T23:09:17.057Z,17.00
2019-03-13T23:11:43.944Z,17.02
2019-03-13T23:14:11.149Z,17.00
2019-03-13T23:16:38.108Z,17.00
2019-03-13T23:19:05.038Z,17.00
2019-03-13T23:21:31.917Z,16.99
2019-03-13T23:23:58.807Z,17.00
2019-03-13T23:26:26.918Z,17.00
2019-03-13T23:28:54.291Z,16.97
2019-03-13T23:31:21.406Z,16.97
2019-03-13T23:33:48.826Z,16.95
2019-03-13T23:36:15.703Z,16.95
2019-03-13T23:38:42.937Z,16.95
2019-03-13T23:41:09.874Z,16.93
2019-03-13T23:43:37.026Z,16.92
2019-03-13T23:46:04.009Z,16.90
2019-03-13T23:48:32.345Z,16.83
2019-03-13T23:50:59.221Z,16.82
2019-03-13T23:53:26.479Z,16.84
2019-03-13T23:55:53.703Z,16.83
2019-03-13T23:58:20.643Z,16.84
